createdAt,value
2018-09-25T00:04:12.129Z,3.9
2018-09-25T00:09:14.308Z,2.5
2018-09-25T00:14:16.588Z,2.4
2018-09-25T00:19:19.116Z,4.5
2018-09-25T00:24:21.302Z,1.4
2018-09-25T00:29:23.474Z,2.6
2018-09-25T00:34:25.876Z,2.6
2018-09-25T00:39:28.124Z,2.4
2018-09-25T00:44:30.431Z,3.3
2018-09-25T00:49:32.648Z,3.1
2018-09-25T00:54:34.909Z,4.2
2018-09-25T00:59:37.196Z,2.6
2018-09-25T01:04:39.539Z,3.8
2018-09-25T01:09:41.857Z,4
2018-09-25T01:14:44.272Z,3.8
2018-09-25T01:19:46.507Z,2.5
2018-09-25T01:24:48.725Z,3
2018-09-25T01:29:51.018Z,2.8
2018-09-25T01:34:53.284Z,3.6
2018-09-25T01:39:55.628Z,2.4
2018-09-25T01:44:57.895Z,3.4
2018-09-25T01:50:00.233Z,3.5
2018-09-25T01:55:02.500Z,3.7
2018-09-25T02:00:04.761Z,6
2018-09-25T02:05:07.110Z,4.6
2018-09-25T02:10:09.350Z,2
2018-09-25T02:15:11.685Z,3.8
2018-09-25T02:20:13.939Z,4.4
2018-09-25T02:25:16.276Z,5.6
2018-09-25T02:30:18.509Z,2.3
2018-09-25T02:35:20.841Z,3.6
2018-09-25T02:40:23.145Z,3.6
2018-09-25T02:45:25.507Z,2.9
2018-09-25T02:50:27.698Z,3.8
2018-09-25T02:55:29.998Z,4.3
2018-09-25T03:00:32.377Z,3.4
2018-09-25T03:05:34.649Z,2.7
2018-09-25T03:10:37.052Z,4
2018-09-25T03:15:39.141Z,4.2
2018-09-25T03:20:41.523Z,2.3
2018-09-25T03:25:43.765Z,2.4
2018-09-25T03:30:46.066Z,2.6
2018-09-25T03:35:48.444Z,2.7
2018-09-25T03:40:50.661Z,4.8
2018-09-25T03:45:52.961Z,3.2
2018-09-25T03:50:55.219Z,3
2018-09-25T03:55:57.579Z,3.6
2018-09-25T04:00:59.849Z,4.4
2018-09-25T04:06:02.087Z,4.7
2018-09-25T04:11:04.427Z,4.6
2018-09-25T04:16:06.810Z,4.9
2018-09-25T04:21:08.954Z,4
2018-09-25T04:26:11.389Z,3.1
2018-09-25T04:31:13.737Z,4.2
2018-09-25T04:36:15.932Z,5.5
2018-09-25T04:41:18.146Z,5.5
2018-09-25T04:46:20.447Z,6.4
2018-09-25T04:51:22.768Z,5.9
2018-09-25T04:56:25.119Z,4.9
2018-09-25T05:01:27.460Z,5.7
2018-09-25T05:06:29.762Z,4.1
2018-09-25T05:11:31.939Z,3.7
2018-09-25T05:16:34.279Z,4.4
2018-09-25T05:21:36.598Z,4.5
2018-09-25T05:26:38.813Z,5
2018-09-25T05:31:41.148Z,5.2
2018-09-25T05:36:43.524Z,7.1
2018-09-25T05:41:45.665Z,5.1
2018-09-25T05:46:48.014Z,6.6
2018-09-25T05:51:50.354Z,5.4
2018-09-25T05:56:52.552Z,4.1
2018-09-25T06:01:54.818Z,7.3
2018-09-25T06:06:57.210Z,7.2
2018-09-25T06:11:59.495Z,9.1
2018-09-25T06:17:01.705Z,3.9
2018-09-25T06:22:04.175Z,9
2018-09-25T06:32:08.606Z,10.7
2018-09-25T06:37:10.961Z,12.9
2018-09-25T06:42:13.383Z,9.2
2018-09-25T06:47:15.600Z,11.3
2018-09-25T06:52:17.850Z,13.3
2018-09-25T06:57:20.168Z,8.8
2018-09-25T07:02:22.411Z,10.1
2018-09-25T07:07:24.740Z,8.8
2018-09-25T07:12:26.942Z,11.9
2018-09-25T07:17:29.488Z,8.1
2018-09-25T07:22:31.612Z,4.2
2018-09-25T07:27:33.877Z,5.1
2018-09-25T07:32:36.123Z,7.2
2018-09-25T07:37:38.592Z,5.5
2018-09-25T07:42:40.745Z,4.8
2018-09-25T07:47:43.063Z,3.9
2018-09-25T07:52:45.454Z,4.6
2018-09-25T07:57:47.595Z,5.3
2018-09-25T08:02:49.970Z,5
2018-09-25T08:07:52.328Z,3.9
2018-09-25T08:12:54.721Z,4.4
2018-09-25T08:17:56.972Z,5.2
2018-09-25T08:22:59.034Z,3.9
2018-09-25T08:28:01.443Z,4.7
2018-09-25T08:33:03.744Z,3.3
2018-09-25T08:38:06.008Z,5
2018-09-25T08:43:08.318Z,2.8
2018-09-25T08:48:10.710Z,4.6
2018-09-25T08:53:12.931Z,3.4
2018-09-25T08:58:15.252Z,2.9
2018-09-25T09:03:17.473Z,4.6
2018-09-25T09:08:19.778Z,3.6
2018-09-25T09:13:22.069Z,2.3
2018-09-25T09:18:24.430Z,3.2
2018-09-25T09:23:26.612Z,4.1
2018-09-25T09:28:28.953Z,1.2
2018-09-25T09:33:31.238Z,1.1
2018-09-25T09:38:33.504Z,2.8
2018-09-25T09:43:35.843Z,1.7
2018-09-25T09:48:38.164Z,0.9
2018-09-25T09:53:40.504Z,1.7
2018-09-25T09:58:42.718Z,1.1
2018-09-25T10:03:45.016Z,1.7
2018-09-25T10:08:47.386Z,1.6
2018-09-25T10:13:49.626Z,1.8
2018-09-25T10:18:52.079Z,1.6
2018-09-25T10:23:54.224Z,1.4
2018-09-25T10:28:56.527Z,1
2018-09-25T10:33:58.821Z,1.9
2018-09-25T10:39:01.042Z,0.7
2018-09-25T10:44:03.286Z,0.6
2018-09-25T10:49:05.643Z,0.9
2018-09-25T10:54:07.887Z,0.9
2018-09-25T10:59:10.246Z,1.1
2018-09-25T11:04:12.573Z,0.6
2018-09-25T11:09:14.788Z,0.9
2018-09-25T11:14:17.147Z,0.1
2018-09-25T11:19:19.410Z,0.8
2018-09-25T11:24:21.980Z,0.7
2018-09-25T11:29:23.960Z,0.6
2018-09-25T11:34:26.330Z,1.1
2018-09-25T11:39:28.516Z,1
2018-09-25T11:44:30.964Z,0.6
2018-09-25T11:49:33.224Z,0.2
2018-09-25T11:54:35.468Z,0.1
2018-09-25T11:59:37.766Z,0.7
2018-09-25T12:04:40.163Z,0.7
2018-09-25T12:09:42.413Z,0.8
2018-09-25T12:14:44.582Z,1.8
2018-09-25T12:19:46.915Z,0.8
2018-09-25T12:24:49.160Z,0.7
2018-09-25T12:29:51.553Z,0.5
2018-09-25T12:39:56.196Z,0.3
2018-09-25T12:44:58.444Z,0.6
2018-09-25T12:50:00.688Z,0.5
2018-09-25T12:55:02.936Z,0.4
2018-09-25T13:00:05.352Z,0.1
2018-09-25T13:05:07.530Z,0
2018-09-25T13:10:09.845Z,0.3
2018-09-25T13:15:12.188Z,0.1
2018-09-25T13:20:14.475Z,1.2
2018-09-25T13:25:16.695Z,0.3
2018-09-25T13:30:19.143Z,0.6
2018-09-25T13:35:21.374Z,0.7
2018-09-25T13:40:23.566Z,0.1
2018-09-25T13:45:25.932Z,0.8
2018-09-25T13:50:28.319Z,0.7
2018-09-25T13:55:30.607Z,0.4
2018-09-25T14:00:32.827Z,0.5
2018-09-25T14:05:35.104Z,0.4
2018-09-25T14:10:37.463Z,0.6
2018-09-25T14:15:39.605Z,1.1
2018-09-25T14:20:42.067Z,0.8
2018-09-25T14:25:44.440Z,0
2018-09-25T14:30:46.591Z,0.2
2018-09-25T14:35:48.934Z,1
2018-09-25T14:40:51.116Z,0.8
2018-09-25T14:45:53.463Z,0.4
2018-09-25T14:50:55.841Z,0.1
2018-09-25T14:55:58.088Z,0.7
2018-09-25T15:01:00.321Z,0.4
2018-09-25T15:06:02.844Z,0.8
2018-09-25T15:11:04.957Z,1
2018-09-25T15:16:07.177Z,1.2
2018-09-25T15:21:09.620Z,0.5
2018-09-25T15:26:11.798Z,0.8
2018-09-25T15:31:14.120Z,0.5
2018-09-25T15:36:16.360Z,0.1
2018-09-25T15:41:18.740Z,0.6
2018-09-25T15:46:20.977Z,0.4
2018-09-25T15:51:23.373Z,0.6
2018-09-25T15:56:25.681Z,0
2018-09-25T16:01:27.813Z,0.2
2018-09-25T16:06:30.136Z,0
2018-09-25T16:11:32.625Z,0.9
2018-09-25T16:16:34.901Z,1
2018-09-25T16:21:37.219Z,0.9
2018-09-25T16:26:39.413Z,0.4
2018-09-25T16:31:41.603Z,0.2
2018-09-25T16:36:43.875Z,0.3
2018-09-25T16:41:46.241Z,0.5
2018-09-25T16:46:48.475Z,0.4
2018-09-25T16:51:50.831Z,0.9
2018-09-25T16:56:53.190Z,0.7
2018-09-25T17:01:55.376Z,0.6
2018-09-25T17:06:57.713Z,1.4
2018-09-25T17:11:59.970Z,0.3
2018-09-25T17:17:02.390Z,1
2018-09-25T17:22:04.638Z,0.8
2018-09-25T17:27:06.875Z,1.7
2018-09-25T17:32:09.243Z,1
2018-09-25T17:37:11.481Z,1.5
2018-09-25T17:42:13.782Z,1.1
2018-09-25T17:47:15.992Z,1.1
2018-09-25T17:52:18.484Z,1.6
2018-09-25T17:57:20.697Z,1.3
2018-09-25T18:02:22.972Z,1.1
2018-09-25T18:07:25.327Z,1.1
2018-09-25T18:12:27.468Z,2.2
2018-09-25T18:17:29.797Z,0.5
2018-09-25T18:22:32.227Z,0.3
2018-09-25T18:27:34.435Z,2.5
2018-09-25T18:37:38.941Z,1
2018-09-25T18:42:41.346Z,0.5
2018-09-25T18:47:43.536Z,0.6
2018-09-25T18:52:45.890Z,1.2
2018-09-25T18:57:48.298Z,1
2018-09-25T19:02:50.475Z,0.7
2018-09-25T19:07:52.759Z,0.7
2018-09-25T19:12:55.073Z,1.9
2018-09-25T19:17:57.451Z,2.1
2018-09-25T19:22:59.600Z,2.3
2018-09-25T19:28:01.974Z,2.4
2018-09-25T19:33:04.225Z,0.9
2018-09-25T19:38:06.706Z,0.9
2018-09-25T19:43:08.740Z,1.3
2018-09-25T19:48:11.043Z,1.5
2018-09-25T19:53:13.387Z,2.1
2018-09-25T19:58:15.717Z,1
2018-09-25T20:03:18.009Z,2.8
2018-09-25T20:08:20.300Z,1.5
2018-09-25T20:13:22.765Z,1.7
2018-09-25T20:18:24.963Z,1.3
2018-09-25T20:23:27.198Z,2.1
2018-09-25T20:28:29.505Z,1.7
2018-09-25T20:33:31.779Z,2.8
2018-09-25T20:38:34.013Z,3.4
2018-09-25T20:43:36.548Z,4.2
2018-09-25T20:48:38.603Z,3.9
2018-09-25T20:53:41.095Z,2.7
2018-09-25T20:58:43.232Z,3.7
2018-09-25T21:03:45.628Z,3.4
2018-09-25T21:08:47.828Z,2.1
2018-09-25T21:13:50.124Z,4.4
2018-09-25T21:18:52.552Z,5.2
2018-09-25T21:23:54.782Z,1.9
2018-09-25T21:28:57.003Z,2.7
2018-09-25T21:33:59.363Z,3.4
2018-09-25T21:39:01.668Z,4.4
2018-09-25T21:44:03.876Z,1.6
2018-09-25T21:49:06.129Z,2.6
2018-09-25T21:54:08.460Z,1.3
2018-09-25T21:59:10.948Z,2
2018-09-25T22:04:13.133Z,3.5
2018-09-25T22:09:15.351Z,1.4
2018-09-25T22:14:17.605Z,3
2018-09-25T22:19:19.845Z,2
2018-09-25T22:24:22.251Z,3.6
2018-09-25T22:29:24.449Z,2.5
2018-09-25T22:34:26.834Z,2.7
2018-09-25T22:39:29.273Z,3
2018-09-25T22:44:31.532Z,4
2018-09-25T22:49:33.731Z,3.2
2018-09-25T22:54:36.072Z,3.1
2018-09-25T22:59:38.232Z,3.9
2018-09-25T23:04:40.596Z,4.8
2018-09-25T23:09:42.834Z,2.2
2018-09-25T23:14:45.226Z,3.4
2018-09-25T23:19:47.453Z,3.1
2018-09-25T23:24:49.740Z,4.8
2018-09-25T23:29:52.075Z,4
2018-09-25T23:34:54.359Z,6.7
2018-09-25T23:39:56.724Z,4.9
2018-09-25T23:44:59.030Z,3.9
2018-09-25T23:50:01.280Z,6.7
2018-09-25T23:55:03.541Z,5.2
